Terminal Aerodrome Forecast
Issued by NWS Shreveport, LA

Home | Current Version | Previous Version | Text Only | Print | Product List | Glossary On
Versions: 1 2 3 4 5 6 7 8 9 10 11 12
385
FTUS44 KSHV 131146
TAFTYR
TAF
KTYR 131146Z 1312/1412 04004KT P6SM SKC
     FM131500 09012KT P6SM FEW050
     FM132100 13012KT P6SM OVC050
     FM140000 12008KT P6SM BKN040 OVC250
     FM140900 16011KT P6SM OVC025=

USA.gov is the U.S. government's official web portal to all federal, state and local government web resources and services.